Time;durP1;ratioP1;P1;durP2;ratioP2;P2;SDS_P1;SDS_P2;PMS_P1;PMS_P2;Temp;Humidity;BMP_temperature;BMP_pressure;BME280_temperature;BME280_humidity;BME280_pressure;Samples;Min_cycle;Max_cycle;Signal;HPM_P1;HPM_P2
2023/04/30 00:00:14;;;;;;;32.00;21.15;;;9.50;99.90;;;;;;5059666;28;20995;-75
2023/04/30 00:02:42;;;;;;;35.15;23.13;;;9.40;99.90;;;;;;5059684;28;20099;-75
2023/04/30 00:05:11;;;;;;;35.47;23.77;;;9.40;99.90;;;;;;5064248;28;20064;-76
2023/04/30 00:07:41;;;;;;;39.90;27.30;;;9.40;99.90;;;;;;5059813;28;20139;-75
2023/04/30 00:10:10;;;;;;;40.67;25.88;;;9.30;99.90;;;;;;5044946;28;20118;-74
2023/04/30 00:12:39;;;;;;;39.45;25.52;;;9.30;99.90;;;;;;5059430;28;20044;-76
2023/04/30 00:15:07;;;;;;;32.50;22.75;;;9.30;99.90;;;;;;5058791;28;20048;-77
2023/04/30 00:17:34;;;;;;;31.52;21.58;;;9.20;99.90;;;;;;5060334;28;20046;-75
2023/04/30 00:20:02;;;;;;;29.05;19.23;;;9.20;99.90;;;;;;5058319;28;20037;-74
2023/04/30 00:22:29;;;;;;;27.33;18.35;;;9.20;99.90;;;;;;5059344;28;20041;-75
2023/04/30 00:24:57;;;;;;;25.10;18.83;;;9.10;99.90;;;;;;5042131;28;20048;-78
2023/04/30 00:27:24;;;;;;;27.38;20.17;;;9.10;99.90;;;;;;5040702;28;20048;-75
2023/04/30 00:29:54;;;;;;;30.85;21.48;;;9.10;99.90;;;;;;5056551;28;20374;-77
2023/04/30 00:32:21;;;;;;;29.13;22.20;;;9.10;99.90;;;;;;5056971;28;20045;-76
2023/04/30 00:34:48;;;;;;;31.85;23.70;;;9.00;99.90;;;;;;5036198;28;20049;-75
2023/04/30 00:37:16;;;;;;;28.80;21.13;;;8.90;99.90;;;;;;5039650;28;20041;-76
2023/04/30 00:39:43;;;;;;;24.92;19.23;;;8.90;99.90;;;;;;5053078;28;20045;-76
2023/04/30 00:42:13;;;;;;;23.25;16.10;;;8.90;99.90;;;;;;5038898;28;20052;-76
2023/04/30 00:44:40;;;;;;;23.80;15.38;;;8.90;99.90;;;;;;5038124;28;20075;-75
2023/04/30 00:47:09;;;;;;;22.13;14.65;;;8.90;99.90;;;;;;5037512;28;20128;-75
2023/04/30 00:49:37;;;;;;;22.50;13.80;;;9.00;99.90;;;;;;5038646;28;20569;-77
2023/04/30 00:52:04;;;;;;;24.95;17.05;;;9.00;99.90;;;;;;5037409;28;20033;-75
2023/04/30 00:54:32;;;;;;;25.38;16.80;;;8.90;99.90;;;;;;5036561;28;20528;-75
2023/04/30 00:56:59;;;;;;;21.95;14.27;;;8.90;99.90;;;;;;5037136;28;20052;-75
2023/04/30 00:59:28;;;;;;;23.42;14.80;;;8.80;99.90;;;;;;5036606;28;20052;-74
2023/04/30 01:01:56;;;;;;;20.55;14.48;;;8.80;99.90;;;;;;5041582;28;20152;-74
2023/04/30 01:04:25;;;;;;;23.38;14.23;;;8.80;99.90;;;;;;5037622;28;20037;-76
2023/04/30 01:06:53;;;;;;;20.45;14.50;;;8.80;99.90;;;;;;5036658;28;20044;-75
2023/04/30 01:09:21;;;;;;;22.50;15.68;;;8.80;99.90;;;;;;5037162;28;20056;-74
2023/04/30 01:11:56;;;;;;;19.85;14.15;;;8.80;99.90;;;;;;5039367;28;20044;-75
2023/04/30 01:14:29;;;;;;;23.10;14.60;;;8.80;99.90;;;;;;5038156;28;20052;-76
2023/04/30 01:17:07;;;;;;;21.95;16.52;;;8.70;99.90;;;;;;5038181;28;20064;-75
2023/04/30 01:19:42;;;;;;;21.95;15.13;;;8.70;99.90;;;;;;5044734;28;20036;-75
2023/04/30 01:22:16;;;;;;;18.17;13.43;;;8.70;99.90;;;;;;5063112;28;20112;-75
2023/04/30 01:25:16;;;;;;;21.20;13.23;;;8.70;99.90;;;;;;5049503;28;20045;-75
2023/04/30 01:28:08;;;;;;;18.13;13.15;;;8.60;99.90;;;;;;5034165;28;20496;-75
2023/04/30 01:30:36;;;;;;;18.25;13.65;;;8.60;99.90;;;;;;5037705;28;20039;-76
2023/04/30 01:36:21;;;;;;;16.88;13.35;;;8.50;99.90;;;;;;5014957;28;20061;-76
2023/04/30 01:39:26;;;;;;;19.50;13.45;;;8.40;99.90;;;;;;4980817;28;20124;-74
2023/04/30 01:42:02;;;;;;;24.23;15.68;;;8.40;99.90;;;;;;4959921;28;20057;-76
2023/04/30 01:44:47;;;;;;;25.80;16.88;;;8.50;99.90;;;;;;5000204;28;20072;-73
2023/04/30 01:47:24;;;;;;;23.65;16.17;;;8.40;99.90;;;;;;5001011;28;20046;-76
2023/04/30 01:50:01;;;;;;;22.92;16.35;;;8.40;99.90;;;;;;5001099;28;20129;-76
2023/04/30 01:52:37;;;;;;;22.13;15.00;;;8.40;99.90;;;;;;5000356;28;20050;-75
2023/04/30 01:55:08;;;;;;;20.70;14.35;;;8.30;99.90;;;;;;4999351;28;20039;-75
2023/04/30 01:57:40;;;;;;;21.42;15.10;;;8.30;99.90;;;;;;5000135;28;20478;-75
2023/04/30 02:00:11;;;;;;;24.10;14.52;;;8.20;99.90;;;;;;5000016;28;20088;-75
2023/04/30 02:02:41;;;;;;;23.80;14.70;;;8.20;99.90;;;;;;5002428;28;20525;-75
2023/04/30 02:05:09;;;;;;;23.05;16.10;;;8.20;99.90;;;;;;4984117;28;20494;-76
2023/04/30 02:07:40;;;;;;;19.65;14.50;;;8.20;99.90;;;;;;5015171;28;20045;-75
2023/04/30 02:10:10;;;;;;;22.17;14.68;;;8.20;99.90;;;;;;5026671;28;20050;-76
2023/04/30 02:12:38;;;;;;;21.50;14.02;;;8.20;99.90;;;;;;5015455;28;20038;-76
2023/04/30 02:15:12;;;;;;;19.23;13.43;;;8.10;99.90;;;;;;5009012;28;20045;-75
2023/04/30 02:17:41;;;;;;;18.20;12.88;;;8.10;99.90;;;;;;5002345;28;20043;-77
2023/04/30 02:20:10;;;;;;;15.82;11.40;;;8.10;99.90;;;;;;4984647;28;20610;-77
2023/04/30 02:22:37;;;;;;;17.90;12.00;;;8.10;99.90;;;;;;4990301;28;20076;-76
2023/04/30 02:25:06;;;;;;;20.38;13.93;;;8.10;99.90;;;;;;4989205;28;20046;-76
2023/04/30 02:27:34;;;;;;;17.83;12.50;;;8.10;99.90;;;;;;5004676;28;20114;-76
2023/04/30 02:30:01;;;;;;;16.48;12.05;;;8.10;99.90;;;;;;4999825;28;20056;-75
2023/04/30 02:32:30;;;;;;;19.00;13.27;;;8.00;99.90;;;;;;4981354;28;20403;-75
2023/04/30 02:34:58;;;;;;;16.88;12.20;;;8.00;99.90;;;;;;5000509;28;20058;-74
2023/04/30 02:37:26;;;;;;;19.17;12.57;;;8.10;99.90;;;;;;5000632;28;20074;-76
2023/04/30 02:39:53;;;;;;;18.83;14.15;;;8.00;99.90;;;;;;4998658;28;20145;-76
2023/04/30 02:42:21;;;;;;;20.35;13.85;;;7.90;99.90;;;;;;4999388;28;20445;-76
2023/04/30 02:44:48;;;;;;;20.33;14.60;;;7.90;99.90;;;;;;5000235;28;20152;-75
2023/04/30 02:47:16;;;;;;;20.35;14.02;;;8.00;99.90;;;;;;4999307;28;20445;-75
2023/04/30 02:49:45;;;;;;;18.90;13.40;;;7.90;99.90;;;;;;4979877;28;20430;-73
2023/04/30 02:52:12;;;;;;;18.17;13.82;;;7.90;99.90;;;;;;4981026;28;20039;-75
2023/04/30 02:54:40;;;;;;;22.55;13.85;;;7.90;99.90;;;;;;4999517;28;20046;-74
2023/04/30 02:57:07;;;;;;;17.52;12.20;;;7.90;99.90;;;;;;4999383;28;20050;-76
2023/04/30 02:59:36;;;;;;;17.92;11.68;;;7.90;99.90;;;;;;4998151;28;20517;-74
2023/04/30 03:02:03;;;;;;;17.02;11.15;;;7.90;99.90;;;;;;4997771;28;20172;-75
2023/04/30 03:04:31;;;;;;;21.17;14.68;;;8.00;99.90;;;;;;4998800;28;20076;-75
2023/04/30 03:07:00;;;;;;;18.30;12.77;;;7.90;99.90;;;;;;4998851;28;20065;-75
2023/04/30 03:09:27;;;;;;;20.33;11.45;;;7.90;99.90;;;;;;4998760;28;20692;-77
2023/04/30 03:11:55;;;;;;;16.40;11.05;;;7.90;99.90;;;;;;4981138;28;20042;-74
2023/04/30 03:14:22;;;;;;;14.55;10.18;;;7.90;99.90;;;;;;4981946;28;20085;-76
2023/04/30 03:16:50;;;;;;;15.88;10.38;;;7.90;99.90;;;;;;5000509;28;20096;-75
2023/04/30 03:19:20;;;;;;;15.90;11.20;;;8.00;99.90;;;;;;4999560;28;20521;-75
2023/04/30 03:21:48;;;;;;;18.08;11.27;;;8.10;99.90;;;;;;4982767;28;20116;-75
2023/04/30 03:24:17;;;;;;;16.00;10.75;;;8.10;99.90;;;;;;4998072;28;20042;-75
2023/04/30 03:26:44;;;;;;;16.00;10.40;;;8.10;99.90;;;;;;4998636;28;20073;-76
2023/04/30 03:29:12;;;;;;;13.73;10.43;;;8.20;99.90;;;;;;4982665;28;20042;-75
2023/04/30 03:31:39;;;;;;;15.27;10.82;;;8.30;99.90;;;;;;4998783;28;20133;-76
2023/04/30 03:34:07;;;;;;;15.02;10.32;;;8.30;99.90;;;;;;4981388;28;20057;-76
2023/04/30 03:36:34;;;;;;;16.52;11.30;;;8.30;99.90;;;;;;4990169;28;20034;-74
2023/04/30 03:39:03;;;;;;;15.27;10.85;;;8.30;99.90;;;;;;4995918;28;20038;-75
2023/04/30 03:41:32;;;;;;;16.05;10.88;;;8.40;99.90;;;;;;4999988;28;20042;-76
2023/04/30 03:43:59;;;;;;;17.23;10.98;;;8.40;99.90;;;;;;4999698;28;20502;-75
2023/04/30 03:46:27;;;;;;;14.57;11.07;;;8.50;99.90;;;;;;4997441;28;20038;-76
2023/04/30 03:48:54;;;;;;;14.80;10.30;;;8.50;99.90;;;;;;4998536;28;20450;-75
2023/04/30 03:51:22;;;;;;;17.20;11.45;;;8.50;99.90;;;;;;4996297;28;20529;-77
2023/04/30 03:53:49;;;;;;;19.17;11.55;;;8.50;99.90;;;;;;4997647;28;20096;-76
2023/04/30 03:56:17;;;;;;;16.67;10.50;;;8.50;99.90;;;;;;5000287;28;20042;-76
2023/04/30 03:58:46;;;;;;;16.45;10.85;;;8.60;99.90;;;;;;4997864;28;20045;-76
2023/04/30 04:01:13;;;;;;;15.02;10.68;;;8.60;99.90;;;;;;4996260;28;20049;-76
2023/04/30 04:03:41;;;;;;;15.00;10.82;;;8.70;99.90;;;;;;4998448;28;20084;-75
2023/04/30 04:06:08;;;;;;;17.35;11.45;;;8.70;99.90;;;;;;4997343;28;20401;-75
2023/04/30 04:08:36;;;;;;;16.58;11.23;;;8.80;99.90;;;;;;4998408;28;20134;-76
2023/04/30 04:11:04;;;;;;;15.48;10.13;;;8.80;99.90;;;;;;4999527;28;20134;-75
2023/04/30 04:13:31;;;;;;;15.77;10.80;;;8.90;99.90;;;;;;4979771;28;20034;-77
2023/04/30 04:16:01;;;;;;;12.88;10.50;;;8.90;99.90;;;;;;4996571;28;20066;-75
2023/04/30 04:18:29;;;;;;;15.70;11.60;;;8.90;99.90;;;;;;5004823;28;20593;-75
2023/04/30 04:20:56;;;;;;;18.27;12.32;;;8.90;99.90;;;;;;4996092;28;20128;-76
2023/04/30 04:23:24;;;;;;;14.35;11.10;;;9.00;99.90;;;;;;4982134;28;20529;-76
2023/04/30 04:25:52;;;;;;;15.80;12.27;;;9.00;99.90;;;;;;4979714;28;20042;-76
2023/04/30 04:28:21;;;;;;;16.25;11.00;;;9.00;99.90;;;;;;4999389;28;20038;-76
2023/04/30 04:30:49;;;;;;;17.38;11.38;;;9.10;99.90;;;;;;4997394;28;20091;-75
2023/04/30 04:33:17;;;;;;;15.65;11.25;;;9.10;99.90;;;;;;4997493;28;20042;-76
2023/04/30 04:35:45;;;;;;;17.05;10.98;;;9.10;99.90;;;;;;4997413;28;20081;-76
2023/04/30 04:38:12;;;;;;;16.17;11.18;;;9.20;99.90;;;;;;4981590;28;20038;-76
2023/04/30 04:40:40;;;;;;;15.70;10.40;;;9.20;99.90;;;;;;4980237;28;20042;-75
2023/04/30 04:43:07;;;;;;;17.75;10.95;;;9.30;99.90;;;;;;4995378;28;20049;-75
2023/04/30 04:45:36;;;;;;;16.02;10.45;;;9.40;99.90;;;;;;4998086;28;20042;-76
2023/04/30 04:48:04;;;;;;;20.38;12.27;;;9.40;99.90;;;;;;4997007;28;20557;-76
2023/04/30 04:50:33;;;;;;;20.60;11.85;;;9.50;99.90;;;;;;4981144;28;20050;-75
2023/04/30 04:53:00;;;;;;;19.55;12.70;;;9.60;99.90;;;;;;4998219;28;20570;-76
2023/04/30 04:55:28;;;;;;;18.02;11.82;;;9.70;99.90;;;;;;4981598;28;20043;-75
2023/04/30 04:57:55;;;;;;;18.23;10.63;;;9.80;99.90;;;;;;4982114;28;20048;-76
2023/04/30 05:00:24;;;;;;;14.57;9.43;;;9.80;99.90;;;;;;4994616;28;20485;-76
2023/04/30 05:02:52;;;;;;;15.88;9.38;;;9.90;99.90;;;;;;4981833;28;21517;-76
2023/04/30 05:05:19;;;;;;;17.80;10.93;;;10.00;99.90;;;;;;4998164;28;20108;-76
2023/04/30 05:07:51;;;;;;;22.55;10.23;;;10.10;99.90;;;;;;4998029;28;20038;-75
2023/04/30 05:10:18;;;;;;;15.90;10.00;;;10.20;99.90;;;;;;4998097;28;20054;-75
2023/04/30 05:12:46;;;;;;;14.80;9.75;;;10.30;99.90;;;;;;5001353;28;20153;-76
2023/04/30 05:15:13;;;;;;;16.73;11.25;;;10.60;99.90;;;;;;5001641;28;20046;-74
2023/04/30 05:17:40;;;;;;;15.07;10.60;;;10.80;99.90;;;;;;5001031;28;20450;-76
2023/04/30 05:20:09;;;;;;;18.48;12.55;;;11.00;99.90;;;;;;5019427;28;20030;-74
2023/04/30 05:22:37;;;;;;;16.17;10.68;;;11.20;99.90;;;;;;5024464;28;20042;-76
2023/04/30 05:25:07;;;;;;;16.92;10.32;;;11.40;99.90;;;;;;5011659;28;20137;-75
2023/04/30 05:27:34;;;;;;;17.48;10.70;;;11.60;99.90;;;;;;5009152;28;20133;-76
2023/04/30 05:30:02;;;;;;;15.50;10.05;;;11.90;99.90;;;;;;5005599;28;20510;-76
2023/04/30 05:32:30;;;;;;;25.80;12.52;;;12.10;99.90;;;;;;4998319;28;20610;-76
2023/04/30 05:34:57;;;;;;;16.00;11.13;;;12.20;99.90;;;;;;5002342;28;20050;-76
2023/04/30 05:37:25;;;;;;;17.15;10.55;;;12.30;99.90;;;;;;4999086;28;20042;-75
2023/04/30 05:39:53;;;;;;;23.05;11.93;;;12.10;99.90;;;;;;5002379;28;20074;-76
2023/04/30 05:42:22;;;;;;;16.50;11.57;;;12.10;99.90;;;;;;5002277;28;20073;-76
2023/04/30 05:44:49;;;;;;;15.18;11.30;;;12.20;99.90;;;;;;5002510;28;20478;-77
2023/04/30 05:47:17;;;;;;;18.17;12.25;;;12.30;99.90;;;;;;5002613;28;20054;-76
2023/04/30 05:49:44;;;;;;;18.70;12.38;;;12.40;99.90;;;;;;4984680;28;20695;-76
2023/04/30 05:52:14;;;;;;;14.65;10.00;;;12.60;99.90;;;;;;4999454;28;20133;-75
2023/04/30 05:54:41;;;;;;;17.23;10.80;;;12.80;99.90;;;;;;5003146;28;20442;-74
2023/04/30 05:57:09;;;;;;;16.65;12.73;;;13.00;99.90;;;;;;5001831;28;20126;-76
2023/04/30 05:59:38;;;;;;;18.80;12.93;;;13.10;99.90;;;;;;5000706;28;20641;-76
2023/04/30 06:02:06;;;;;;;16.40;12.57;;;13.20;99.90;;;;;;5001900;28;20066;-75
2023/04/30 06:04:33;;;;;;;18.55;14.20;;;13.40;99.90;;;;;;5001632;28;20042;-75
2023/04/30 06:07:01;;;;;;;19.60;14.43;;;13.50;99.90;;;;;;5001966;28;20046;-75
2023/04/30 06:09:28;;;;;;;22.17;15.27;;;13.50;99.90;;;;;;4999144;28;20049;-74
2023/04/30 06:11:56;;;;;;;20.27;13.75;;;13.30;99.90;;;;;;4999934;28;20042;-73
2023/04/30 06:14:23;;;;;;;18.63;12.77;;;13.20;99.90;;;;;;5000593;28;20044;-75
2023/04/30 06:16:53;;;;;;;17.85;14.43;;;13.20;99.90;;;;;;4998221;28;20066;-75
2023/04/30 06:19:20;;;;;;;20.73;12.07;;;13.20;99.90;;;;;;5000869;28;20064;-73
2023/04/30 06:21:48;;;;;;;15.75;11.82;;;13.20;99.90;;;;;;4997870;28;20640;-74
2023/04/30 06:24:15;;;;;;;15.90;11.80;;;13.20;99.90;;;;;;5001974;28;20038;-72
2023/04/30 06:26:43;;;;;;;17.55;13.52;;;13.20;99.90;;;;;;5000714;28;20048;-74
2023/04/30 06:29:11;;;;;;;17.00;12.85;;;13.20;99.90;;;;;;5001192;28;20581;-73
2023/04/30 06:31:38;;;;;;;23.70;17.90;;;13.30;99.90;;;;;;5002761;28;20491;-74
2023/04/30 06:34:07;;;;;;;28.73;19.27;;;13.40;99.90;;;;;;5001051;28;20043;-74
2023/04/30 06:36:35;;;;;;;28.73;20.48;;;13.50;99.90;;;;;;5000666;28;20076;-73
2023/04/30 06:39:04;;;;;;;30.25;20.48;;;13.50;99.90;;;;;;5000303;28;20133;-75
2023/04/30 06:41:31;;;;;;;29.25;19.95;;;13.70;99.90;;;;;;5000449;28;20531;-74
2023/04/30 06:43:58;;;;;;;34.08;22.85;;;13.90;99.90;;;;;;5002801;28;20053;-74
2023/04/30 06:46:26;;;;;;;31.70;21.85;;;14.20;99.90;;;;;;5000715;28;20049;-74
2023/04/30 06:48:54;;;;;;;41.10;26.83;;;14.40;99.90;;;;;;5001353;28;20035;-74
2023/04/30 06:51:23;;;;;;;45.45;29.88;;;14.50;99.90;;;;;;4996939;28;20047;-75
2023/04/30 06:53:50;;;;;;;43.55;28.35;;;14.50;99.90;;;;;;4999483;28;20050;-75
2023/04/30 06:56:17;;;;;;;43.95;28.42;;;14.60;99.90;;;;;;5001326;28;20424;-74
2023/04/30 06:58:45;;;;;;;50.42;31.65;;;14.60;99.90;;;;;;5008738;28;20121;-74
2023/04/30 07:01:12;;;;;;;45.20;30.65;;;14.60;99.90;;;;;;4998711;28;20046;-73
2023/04/30 07:03:40;;;;;;;46.83;30.98;;;14.70;99.90;;;;;;4999594;28;20526;-74
2023/04/30 07:06:07;;;;;;;48.22;31.73;;;14.80;99.90;;;;;;4997509;28;20130;-74
2023/04/30 07:08:36;;;;;;;47.33;31.52;;;14.90;99.90;;;;;;4999973;28;20051;-72
2023/04/30 07:11:03;;;;;;;52.80;30.95;;;15.10;99.90;;;;;;5000425;28;20045;-73
2023/04/30 07:13:31;;;;;;;50.47;34.28;;;15.40;99.90;;;;;;4982894;28;20375;-73
2023/04/30 07:15:58;;;;;;;52.08;34.75;;;15.60;99.90;;;;;;4999512;28;20034;-74
2023/04/30 07:18:26;;;;;;;54.22;32.75;;;15.80;99.90;;;;;;4998508;28;20038;-75
2023/04/30 07:20:53;;;;;;;55.78;33.70;;;16.10;99.90;;;;;;4999137;28;20053;-74
2023/04/30 07:23:21;;;;;;;58.22;35.17;;;16.30;99.90;;;;;;5000585;28;20042;-76
2023/04/30 07:25:50;;;;;;;56.70;35.92;;;16.70;99.90;;;;;;4999549;28;20088;-73
2023/04/30 07:28:17;;;;;;;68.00;41.70;;;16.90;99.90;;;;;;4998860;28;20046;-73
2023/04/30 07:30:45;;;;;;;53.10;34.42;;;16.80;99.90;;;;;;4998383;28;20384;-74
2023/04/30 07:33:13;;;;;;;52.08;32.90;;;16.80;99.90;;;;;;4999220;28;20038;-72
2023/04/30 07:35:40;;;;;;;53.95;31.70;;;17.00;99.90;;;;;;4982690;28;20146;-74
2023/04/30 07:38:08;;;;;;;52.33;32.40;;;17.00;99.90;;;;;;4983141;28;20217;-74
2023/04/30 07:40:35;;;;;;;49.40;31.63;;;17.10;99.90;;;;;;4979018;28;20051;-75
2023/04/30 07:43:04;;;;;;;49.95;31.83;;;17.50;99.90;;;;;;4980098;28;20039;-75
2023/04/30 07:45:32;;;;;;;50.95;32.80;;;18.00;99.90;;;;;;4978341;28;20039;-75
2023/04/30 07:48:00;;;;;;;47.28;28.95;;;18.40;99.90;;;;;;4979013;28;20049;-75
2023/04/30 07:50:32;;;;;;;52.35;32.40;;;18.80;99.90;;;;;;4978271;28;20039;-75
2023/04/30 07:53:00;;;;;;;44.28;30.85;;;19.00;99.90;;;;;;4980233;28;20073;-75
2023/04/30 07:55:27;;;;;;;43.25;26.40;;;19.20;99.90;;;;;;4977220;28;20160;-76
2023/04/30 07:57:55;;;;;;;42.83;26.27;;;19.60;99.90;;;;;;4979023;28;20050;-77
2023/04/30 08:00:25;;;;;;;43.22;27.75;;;19.30;99.90;;;;;;4982624;28;20039;-81
2023/04/30 08:02:53;;;;;;;39.42;27.38;;;19.40;99.90;;;;;;4982560;28;20042;-76
2023/04/30 08:05:21;;;;;;;37.70;28.33;;;19.50;99.90;;;;;;4982691;28;20038;-75
2023/04/30 08:07:48;;;;;;;33.78;23.00;;;19.60;99.90;;;;;;4980103;28;20129;-76
2023/04/30 08:10:16;;;;;;;35.35;23.63;;;19.50;99.90;;;;;;4977253;28;20427;-75
2023/04/30 08:12:43;;;;;;;35.10;23.45;;;19.80;99.90;;;;;;4977502;28;20557;-76
2023/04/30 08:15:11;;;;;;;34.58;20.65;;;20.30;99.90;;;;;;4986779;28;20868;-77
2023/04/30 08:17:40;;;;;;;26.42;19.25;;;20.70;99.90;;;;;;4978455;28;20050;-74
2023/04/30 08:20:08;;;;;;;42.38;29.73;;;21.10;99.90;;;;;;4978953;28;20030;-76
2023/04/30 08:22:36;;;;;;;34.35;23.17;;;21.00;99.90;;;;;;4979192;28;20073;-76
2023/04/30 08:25:04;;;;;;;28.52;19.20;;;21.30;99.90;;;;;;4980014;28;20046;-77
2023/04/30 08:27:31;;;;;;;30.17;19.13;;;21.60;97.60;;;;;;4977074;28;20111;-77
2023/04/30 08:29:59;;;;;;;22.17;17.25;;;21.80;94.80;;;;;;4977921;28;20071;-76
2023/04/30 08:32:27;;;;;;;24.25;18.88;;;21.60;92.60;;;;;;4986115;28;20031;-75
2023/04/30 08:34:56;;;;;;;29.80;17.75;;;22.00;92.70;;;;;;5016517;28;20030;-76
2023/04/30 08:37:24;;;;;;;30.52;18.38;;;22.10;90.70;;;;;;5015208;28;20070;-77
2023/04/30 08:39:51;;;;;;;26.23;20.17;;;22.10;89.30;;;;;;5010527;28;20045;-77
2023/04/30 08:42:21;;;;;;;27.33;20.52;;;22.10;87.80;;;;;;5001638;28;20046;-75
2023/04/30 08:44:48;;;;;;;26.10;19.42;;;21.80;88.90;;;;;;5003095;28;20038;-76
2023/04/30 08:47:17;;;;;;;29.23;20.85;;;22.00;90.50;;;;;;4995186;28;20089;-76
2023/04/30 08:49:46;;;;;;;30.17;20.85;;;22.20;88.70;;;;;;4997475;28;20042;-76
2023/04/30 08:52:15;;;;;;;28.27;20.10;;;22.70;85.80;;;;;;4998074;28;20047;-77
2023/04/30 08:54:44;;;;;;;29.15;20.27;;;22.90;81.40;;;;;;4996357;28;20058;-75
2023/04/30 08:57:12;;;;;;;29.10;19.33;;;22.60;81.30;;;;;;4997779;28;20046;-74
2023/04/30 08:59:39;;;;;;;24.83;18.80;;;22.10;82.50;;;;;;4998449;28;20073;-76
2023/04/30 09:02:09;;;;;;;25.45;20.45;;;21.70;87.20;;;;;;4999195;28;20045;-76
2023/04/30 09:04:36;;;;;;;25.65;20.63;;;21.40;91.70;;;;;;4995816;28;20138;-75
2023/04/30 09:07:04;;;;;;;25.85;16.70;;;21.50;95.50;;;;;;4998907;28;20084;-76
2023/04/30 09:09:39;;;;;;;24.50;18.63;;;21.40;95.20;;;;;;4998148;28;20040;-75
2023/04/30 09:12:14;;;;;;;24.17;19.13;;;21.10;97.40;;;;;;4998489;28;20133;-75
2023/04/30 09:14:43;;;;;;;22.98;19.10;;;20.60;99.90;;;;;;4998590;28;20586;-76
2023/04/30 09:17:16;;;;;;;23.80;18.15;;;20.50;99.90;;;;;;4999265;28;20045;-75
2023/04/30 09:19:44;;;;;;;23.92;18.13;;;20.30;99.90;;;;;;4998907;28;20042;-76
2023/04/30 09:22:20;;;;;;;25.33;18.33;;;19.60;99.90;;;;;;4998071;28;20490;-75
2023/04/30 09:24:50;;;;;;;25.63;18.50;;;19.50;99.90;;;;;;5000315;28;20050;-75
2023/04/30 09:27:18;;;;;;;24.45;17.35;;;19.70;99.90;;;;;;5000284;28;20053;-74
2023/04/30 09:29:46;;;;;;;25.15;16.63;;;20.10;99.90;;;;;;5000382;28;20069;-76
2023/04/30 09:32:14;;;;;;;23.75;17.02;;;20.40;99.90;;;;;;4998895;28;20129;-76
2023/04/30 09:34:42;;;;;;;24.65;17.67;;;20.70;99.90;;;;;;4997578;28;20054;-75
2023/04/30 09:37:10;;;;;;;22.80;18.60;;;20.70;99.90;;;;;;4997822;28;20042;-74
2023/04/30 09:39:49;;;;;;;27.00;19.50;;;20.40;99.90;;;;;;5000131;28;20038;-74
2023/04/30 09:42:18;;;;;;;23.98;19.48;;;20.00;99.90;;;;;;4997828;28;20046;-76
2023/04/30 09:44:45;;;;;;;27.27;18.25;;;20.20;99.90;;;;;;4998369;28;20057;-76
2023/04/30 09:47:14;;;;;;;22.02;17.48;;;20.30;99.90;;;;;;4998638;28;20048;-75
2023/04/30 09:49:50;;;;;;;21.38;18.50;;;20.50;99.90;;;;;;4998717;28;20052;-75
2023/04/30 09:52:18;;;;;;;21.38;17.10;;;20.60;99.90;;;;;;4991228;28;20347;-76
2023/04/30 09:54:47;;;;;;;21.90;16.05;;;20.60;99.90;;;;;;4985227;28;20049;-77
2023/04/30 09:57:16;;;;;;;16.40;13.98;;;20.50;99.90;;;;;;4998321;28;20510;-76
2023/04/30 09:59:45;;;;;;;16.50;12.32;;;20.20;99.90;;;;;;5000710;28;20110;-75
2023/04/30 10:02:15;;;;;;;16.70;12.93;;;19.90;99.90;;;;;;5000334;28;20140;-77
2023/04/30 10:04:44;;;;;;;24.75;17.98;;;19.50;99.90;;;;;;5000811;28;20041;-76
2023/04/30 10:07:16;;;;;;;28.02;18.60;;;19.00;99.90;;;;;;5004125;28;20043;-75
2023/04/30 10:09:50;;;;;;;28.13;20.15;;;18.50;99.90;;;;;;5004889;28;20038;-74
2023/04/30 10:12:24;;;;;;;23.57;20.03;;;18.20;99.90;;;;;;5004025;28;20045;-75
2023/04/30 10:15:00;;;;;;;24.55;18.48;;;17.90;99.90;;;;;;4990013;28;20272;-77
2023/04/30 10:17:30;;;;;;;25.00;20.58;;;17.80;99.90;;;;;;5006202;28;20046;-74
2023/04/30 10:20:03;;;;;;;24.30;20.13;;;17.80;99.90;;;;;;4988456;28;20919;-75
2023/04/30 10:22:32;;;;;;;23.20;18.75;;;18.00;99.90;;;;;;5000948;28;20041;-76
2023/04/30 10:25:01;;;;;;;23.80;15.65;;;18.10;99.90;;;;;;4999441;28;20046;-75
2023/04/30 10:27:32;;;;;;;18.88;15.52;;;18.30;99.90;;;;;;4999672;28;20146;-76
2023/04/30 10:30:00;;;;;;;16.98;11.85;;;18.70;99.90;;;;;;5000722;28;20045;-76
2023/04/30 10:32:33;;;;;;;13.35;11.48;;;19.00;99.90;;;;;;5000616;28;20046;-75
2023/04/30 10:35:11;;;;;;;12.80;10.48;;;19.50;99.90;;;;;;5002819;28;20061;-75
2023/04/30 10:37:46;;;;;;;13.27;9.52;;;19.90;99.90;;;;;;5004368;28;20522;-76
2023/04/30 10:40:14;;;;;;;11.20;9.10;;;20.00;99.90;;;;;;5001294;28;20046;-75
2023/04/30 10:42:48;;;;;;;11.20;9.82;;;20.10;99.90;;;;;;5001022;28;20490;-75
2023/04/30 10:45:16;;;;;;;15.27;11.05;;;20.20;99.90;;;;;;5001896;28;20038;-76
2023/04/30 10:47:45;;;;;;;19.30;13.13;;;20.30;99.90;;;;;;5003038;28;21200;-75
2023/04/30 10:50:13;;;;;;;11.05;9.00;;;20.30;99.90;;;;;;5001983;28;20045;-75
2023/04/30 10:52:40;;;;;;;11.60;9.77;;;20.40;99.90;;;;;;5004811;28;20042;-76
2023/04/30 10:55:09;;;;;;;9.70;7.85;;;20.30;99.90;;;;;;5010140;28;20053;-76
2023/04/30 10:57:42;;;;;;;9.25;8.18;;;20.20;99.90;;;;;;5007321;28;20058;-76
2023/04/30 11:00:25;;;;;;;7.97;7.13;;;20.40;99.90;;;;;;4999477;28;20041;-74
2023/04/30 11:02:57;;;;;;;8.00;6.93;;;20.80;99.90;;;;;;5000636;28;20038;-74
2023/04/30 11:05:38;;;;;;;17.50;8.75;;;21.00;99.90;;;;;;4999433;28;20030;-77
2023/04/30 11:08:11;;;;;;;21.58;10.73;;;21.40;99.90;;;;;;5001632;28;20046;-76
2023/04/30 11:10:38;;;;;;;9.45;8.18;;;21.80;99.90;;;;;;5001687;28;20129;-75
2023/04/30 11:13:09;;;;;;;8.60;5.97;;;22.10;99.00;;;;;;5001125;28;20038;-75
2023/04/30 11:15:44;;;;;;;11.27;7.03;;;22.30;92.90;;;;;;5000756;28;20046;-77
2023/04/30 11:18:13;;;;;;;;;;;22.30;91.50;;;;;;5000126;28;20038;-75
2023/04/30 11:20:41;;;;;;;8.82;7.03;;;22.40;91.40;;;;;;4998492;28;19921;-77
2023/04/30 11:23:11;;;;;;;5.35;4.53;;;22.40;91.40;;;;;;5001189;28;20041;-74
2023/04/30 11:25:42;;;;;;;6.60;4.80;;;22.10;93.20;;;;;;5000377;28;20506;-74
2023/04/30 11:28:15;;;;;;;9.73;5.10;;;21.20;94.20;;;;;;5000905;28;20043;-75
2023/04/30 11:30:51;;;;;;;19.65;7.70;;;21.20;99.90;;;;;;5000114;28;20074;-75
2023/04/30 11:33:21;;;;;;;7.85;5.80;;;21.50;99.90;;;;;;4998591;28;20466;-75
2023/04/30 11:35:51;;;;;;;11.50;7.47;;;21.80;95.90;;;;;;5002123;28;20038;-77
2023/04/30 11:38:21;;;;;;;7.05;4.53;;;22.00;90.60;;;;;;5001209;28;20134;-75
2023/04/30 11:40:49;;;;;;;8.95;3.70;;;22.20;91.40;;;;;;5001722;28;20042;-76
2023/04/30 11:43:27;;;;;;;8.05;3.00;;;22.30;79.30;;;;;;5001071;28;20084;-75
2023/04/30 11:46:07;;;;;;;4.18;2.50;;;22.50;75.10;;;;;;5010608;28;20044;-74
2023/04/30 11:48:36;;;;;;;6.35;2.90;;;22.40;69.90;;;;;;5023415;28;20102;-75
2023/04/30 11:51:13;;;;;;;5.70;3.17;;;22.40;70.80;;;;;;5013256;28;20136;-74
2023/04/30 11:53:41;;;;;;;3.03;1.60;;;22.20;69.40;;;;;;5005852;28;20145;-76
2023/04/30 11:56:09;;;;;;;4.32;2.10;;;22.20;63.60;;;;;;5003490;28;20088;-76
2023/04/30 11:58:38;;;;;;;4.15;1.70;;;22.20;63.10;;;;;;5000303;28;20043;-74
2023/04/30 12:01:09;;;;;;;4.50;1.60;;;22.30;63.10;;;;;;5004163;28;20049;-76
2023/04/30 12:03:44;;;;;;;2.17;1.50;;;22.10;62.70;;;;;;5001127;28;20068;-76
2023/04/30 12:06:12;;;;;;;2.00;1.50;;;21.70;61.80;;;;;;5001946;28;20041;-75
2023/04/30 12:08:42;;;;;;;3.20;1.80;;;21.40;60.90;;;;;;4999593;28;20038;-75
2023/04/30 12:11:21;;;;;;;2.78;1.70;;;21.10;62.00;;;;;;5000662;28;20068;-76
2023/04/30 12:13:52;;;;;;;2.67;1.70;;;21.00;62.40;;;;;;4999007;28;20054;-76
2023/04/30 12:16:21;;;;;;;6.93;2.15;;;20.90;62.90;;;;;;4999800;28;20043;-76
2023/04/30 12:18:50;;;;;;;2.60;1.60;;;21.00;62.10;;;;;;4999563;28;20049;-76
2023/04/30 12:21:18;;;;;;;2.70;1.80;;;21.20;60.70;;;;;;4998237;28;20087;-76
2023/04/30 12:23:46;;;;;;;2.92;1.70;;;21.40;60.50;;;;;;4998948;28;20050;-75
2023/04/30 12:26:13;;;;;;;4.43;2.20;;;21.40;60.30;;;;;;4999942;28;20046;-75
2023/04/30 12:28:41;;;;;;;4.38;2.50;;;21.20;59.40;;;;;;4998298;28;20034;-75
2023/04/30 12:31:09;;;;;;;2.90;1.95;;;21.00;58.70;;;;;;4998600;28;20571;-76
2023/04/30 12:33:37;;;;;;;2.78;1.60;;;20.80;59.50;;;;;;4998510;28;20136;-75
2023/04/30 12:36:10;;;;;;;2.50;1.67;;;20.80;58.60;;;;;;5001319;28;20113;-75
2023/04/30 12:38:37;;;;;;;3.55;1.65;;;20.80;59.80;;;;;;4997441;28;20042;-75
2023/04/30 12:41:05;;;;;;;3.45;1.75;;;20.80;59.40;;;;;;4998917;28;20046;-74
2023/04/30 12:43:33;;;;;;;2.55;1.70;;;20.90;59.00;;;;;;5001851;28;20045;-74
2023/04/30 12:46:01;;;;;;;3.45;1.98;;;21.10;57.30;;;;;;5002656;28;20042;-75